Terminal Aerodrome Forecast
Issued by NWS Pueblo, CO

Home | Current Version | Previous Version | Text Only | Print | Product List | Glossary On
Versions: 1 2 3 4 5 6 7 8 9 10 11 12
000
FTUS45 KPUB 200523
TAFALS
TAF
KALS 200523Z 2006/2106 VRB04KT P6SM BKN110
     FM201000 VRB03KT P6SM SCT110 BKN250
     FM202100 14008KT P6SM VCTS SCT100CB BKN200
     FM210100 VRB06KT P6SM SCT100 BKN200=

USA.gov is the U.S. government's official web portal to all federal, state and local government web resources and services.